Time;durP1;ratioP1;P1;durP2;ratioP2;P2;SDS_P1;SDS_P2;PMS_P1;PMS_P2;Temp;Humidity;BMP_temperature;BMP_pressure;BME280_temperature;BME280_humidity;BME280_pressure;Samples;Min_cycle;Max_cycle;Signal;HPM_P1;HPM_P2
2022/02/27 00:02:13;;;;;;;0.00;0.00;;;;;;;10.84;56.91;101062.03;7359592;19;20010;-61
2022/02/27 00:04:38;;;;;;;0.00;0.00;;;;;;;10.82;56.84;101071.66;7360958;19;20010;-62
2022/02/27 00:07:04;;;;;;;0.00;0.00;;;;;;;10.83;57.19;101065.53;7357930;19;20015;-61
2022/02/27 00:09:30;;;;;;;0.00;0.00;;;;;;;10.82;56.92;101069.06;7360105;19;20765;-60
2022/02/27 00:11:56;;;;;;;0.00;0.00;;;;;;;10.84;56.95;101072.47;7363186;19;20014;-62
2022/02/27 00:14:21;;;;;;;0.10;0.10;;;;;;;10.83;56.68;101066.41;7351202;19;20011;-62
2022/02/27 00:16:47;;;;;;;0.10;0.10;;;;;;;10.80;57.18;101057.78;7363806;19;20463;-61
2022/02/27 00:19:13;;;;;;;0.00;0.00;;;;;;;10.86;56.70;101075.94;7354492;19;20011;-62
2022/02/27 00:21:39;;;;;;;0.00;0.00;;;;;;;10.85;56.56;101055.94;7357292;19;20011;-61
2022/02/27 00:24:05;;;;;;;0.00;0.00;;;;;;;10.85;56.49;101058.56;7359617;19;20013;-62
2022/02/27 00:26:31;;;;;;;0.00;0.00;;;;;;;10.84;56.73;101067.25;7361092;19;20003;-62
2022/02/27 00:28:56;;;;;;;0.00;0.00;;;;;;;10.76;56.32;101050.88;7359812;19;20473;-61
2022/02/27 00:31:22;;;;;;;0.00;0.00;;;;;;;10.84;56.86;101057.66;7362569;19;20014;-62
2022/02/27 00:33:47;;;;;;;0.10;0.10;;;;;;;10.85;56.47;101069.88;7360951;19;20006;-62
2022/02/27 00:36:13;;;;;;;0.00;0.00;;;;;;;10.86;56.62;101065.50;7364657;19;20015;-61
2022/02/27 00:38:38;;;;;;;0.00;0.00;;;;;;;10.87;56.51;101064.59;7351207;19;20391;-61
2022/02/27 00:41:03;;;;;;;0.05;0.05;;;;;;;10.86;56.28;101060.28;7362182;19;20018;-62
2022/02/27 00:43:29;;;;;;;0.00;0.00;;;;;;;10.82;56.79;101069.06;7352752;19;20026;-60
2022/02/27 00:45:54;;;;;;;0.00;0.00;;;;;;;10.80;56.85;101056.03;7355867;19;20035;-62
2022/02/27 00:48:20;;;;;;;0.05;0.05;;;;;;;10.87;56.11;101051.53;7348374;19;20018;-60
2022/02/27 00:50:45;;;;;;;0.08;0.08;;;;;;;10.87;56.36;101062.00;7359166;19;20039;-62
2022/02/27 00:53:11;;;;;;;0.00;0.00;;;;;;;10.90;56.32;101069.78;7353542;19;20011;-60
2022/02/27 00:55:36;;;;;;;0.08;0.08;;;;;;;10.90;56.30;101061.94;7361672;19;20015;-62
2022/02/27 00:58:02;;;;;;;0.10;0.10;;;;;;;10.89;56.29;101047.13;7359888;19;20011;-62
2022/02/27 01:00:28;;;;;;;0.00;0.00;;;;;;;10.88;56.50;101053.25;7361258;19;20450;-61
2022/02/27 01:02:54;;;;;;;0.00;0.00;;;;;;;10.82;55.87;101038.56;7351701;19;21313;-62
2022/02/27 01:05:19;;;;;;;0.00;0.00;;;;;;;10.89;56.35;101052.34;7359583;19;20018;-62
2022/02/27 01:07:45;;;;;;;0.00;0.00;;;;;;;10.88;56.34;101048.03;7348787;19;20469;-61
2022/02/27 01:10:10;;;;;;;0.10;0.10;;;;;;;10.87;56.56;101059.38;7352975;19;20025;-61
2022/02/27 01:12:36;;;;;;;0.10;0.10;;;;;;;10.87;56.51;101049.78;7360915;19;20014;-61
2022/02/27 01:15:07;;;;;;;0.00;0.00;;;;;;;10.88;57.03;101050.66;7355928;19;20023;-62
2022/02/27 01:17:32;;;;;;;0.00;0.00;;;;;;;10.78;56.92;101036.88;7350484;19;20522;-61
2022/02/27 01:19:58;;;;;;;0.00;0.00;;;;;;;10.85;57.13;101048.09;7357889;19;20025;-61
2022/02/27 01:22:23;;;;;;;0.00;0.00;;;;;;;10.86;57.29;101047.22;7358693;19;20042;-62
2022/02/27 01:24:49;;;;;;;0.00;0.00;;;;;;;10.86;57.49;101055.03;7366836;19;20021;-62
2022/02/27 01:27:14;;;;;;;0.10;0.10;;;;;;;10.85;57.52;101051.56;7365858;19;20030;-62
2022/02/27 01:29:40;;;;;;;0.00;0.00;;;;;;;10.84;57.49;101052.44;7361169;19;20124;-61
2022/02/27 01:32:06;;;;;;;0.00;0.00;;;;;;;10.85;57.00;101053.34;7360944;19;20021;-61
2022/02/27 01:34:32;;;;;;;0.00;0.00;;;;;;;10.84;56.94;101054.19;7356550;19;20006;-62
2022/02/27 01:36:58;;;;;;;0.00;0.00;;;;;;;10.82;57.18;101053.38;7354249;19;20015;-61
2022/02/27 01:39:24;;;;;;;0.00;0.00;;;;;;;10.84;56.89;101056.81;7354201;19;20019;-62
2022/02/27 01:41:49;;;;;;;0.00;0.00;;;;;;;10.84;56.78;101065.50;7355983;19;20019;-62
2022/02/27 01:44:15;;;;;;;0.00;0.00;;;;;;;10.84;57.39;101055.06;7352178;19;20018;-61
2022/02/27 01:47:03;;;;;;;0.00;0.00;;;;;;;10.88;57.39;101058.47;7351231;19;20054;-62
2022/02/27 01:49:29;;;;;;;0.00;0.00;;;;;;;10.85;57.10;101048.09;7252459;19;2004347;-62
2022/02/27 01:51:55;;;;;;;0.03;0.03;;;;;;;10.73;57.13;101028.28;7356033;19;20030;-62
2022/02/27 01:54:22;;;;;;;0.00;0.00;;;;;;;10.74;57.54;101018.69;7358938;19;20021;-62
2022/02/27 01:56:48;;;;;;;0.00;0.00;;;;;;;10.75;57.47;101021.28;7358145;19;20015;-62
2022/02/27 01:59:14;;;;;;;0.00;0.00;;;;;;;10.78;57.65;101023.81;7353960;19;20026;-61
2022/02/27 02:01:40;;;;;;;0.00;0.00;;;;;;;10.79;57.67;101029.91;7357009;19;20107;-61
2022/02/27 02:04:06;;;;;;;0.00;0.00;;;;;;;10.80;57.79;101029.03;7357698;19;20014;-62
2022/02/27 02:06:31;;;;;;;0.00;0.00;;;;;;;10.79;57.62;101035.13;7353955;19;20022;-62
2022/02/27 02:08:57;;;;;;;0.00;0.00;;;;;;;10.77;57.96;101034.31;7355735;19;20022;-60
2022/02/27 02:11:22;;;;;;;0.00;0.00;;;;;;;10.76;58.06;101032.59;7359726;19;20017;-62
2022/02/27 02:13:48;;;;;;;0.00;0.00;;;;;;;10.76;58.08;101032.59;7350153;19;20133;-60
2022/02/27 02:16:14;;;;;;;0.00;0.00;;;;;;;10.75;58.00;101036.09;7358664;19;20362;-62
2022/02/27 02:18:40;;;;;;;0.00;0.00;;;;;;;10.74;57.97;101036.97;7361511;19;20056;-62
2022/02/27 02:21:06;;;;;;;0.10;0.10;;;;;;;10.74;58.04;101034.34;7367279;19;20014;-61
2022/02/27 02:23:44;;;;;;;0.01;0.01;;;;;;;10.70;57.84;101017.03;3867299;19;10280040;-62
2022/02/27 02:26:10;;;;;;;0.00;0.00;;;;;;;10.69;57.85;101025.75;5128972;19;10001441;-61
2022/02/27 02:28:35;;;;;;;0.00;0.00;;;;;;;10.71;58.40;101016.16;7357476;19;20007;-60
2022/02/27 02:31:01;;;;;;;0.00;0.00;;;;;;;10.70;58.28;101023.13;7353945;19;20164;-62
2022/02/27 02:33:37;;;;;;;0.00;0.00;;;;;;;10.73;58.23;101014.34;7355925;19;20042;-60
2022/02/27 02:36:06;;;;;;;0.00;0.00;;;;;;;10.69;58.13;101015.28;7349263;19;21693;-60
2022/02/27 02:38:32;;;;;;;0.10;0.10;;;;;;;10.68;58.59;101013.56;7355903;19;20018;-62
2022/02/27 02:40:57;;;;;;;0.00;0.00;;;;;;;10.66;58.88;101013.63;7352242;19;20010;-62
2022/02/27 02:43:23;;;;;;;0.00;0.00;;;;;;;10.64;58.82;101013.66;7354670;19;20371;-62
2022/02/27 02:45:50;;;;;;;0.00;0.00;;;;;;;10.64;58.80;101015.38;7351179;19;20039;-62
2022/02/27 02:48:17;;;;;;;0.00;0.00;;;;;;;10.63;58.84;101011.91;7354599;19;20654;-62
2022/02/27 02:50:42;;;;;;;0.00;0.00;;;;;;;10.61;58.79;101005.84;7352913;19;20035;-62
2022/02/27 02:53:08;;;;;;;0.05;0.05;;;;;;;10.64;58.60;101003.19;7350554;19;20010;-62
2022/02/27 02:55:34;;;;;;;0.00;0.00;;;;;;;10.63;58.87;100996.22;7352257;19;20010;-62
2022/02/27 02:57:59;;;;;;;0.10;0.10;;;;;;;10.63;58.84;101004.06;7345594;19;20001;-62
2022/02/27 03:00:25;;;;;;;0.00;0.00;;;;;;;10.63;58.69;101005.81;7358173;19;20010;-62
2022/02/27 03:02:50;;;;;;;0.00;0.00;;;;;;;10.64;58.99;101011.03;7362677;19;20086;-62
2022/02/27 03:05:16;;;;;;;0.10;0.10;;;;;;;10.63;59.03;101011.91;7360064;19;20011;-62
2022/02/27 03:07:41;;;;;;;0.00;0.00;;;;;;;10.64;58.83;101011.03;7360816;19;20014;-62
2022/02/27 03:10:08;;;;;;;0.00;0.00;;;;;;;10.64;58.63;101008.44;7364286;19;20023;-62
2022/02/27 03:12:35;;;;;;;0.10;0.10;;;;;;;10.54;58.86;100985.97;7366809;19;20016;-62
2022/02/27 03:15:01;;;;;;;0.00;0.00;;;;;;;10.65;58.88;101012.75;7359392;19;20039;-62
2022/02/27 03:17:26;;;;;;;0.00;0.00;;;;;;;10.62;58.55;101001.50;7356085;19;20011;-62
2022/02/27 03:19:52;;;;;;;0.00;0.00;;;;;;;10.68;58.73;101005.75;7357443;19;20733;-62
2022/02/27 03:22:17;;;;;;;0.00;0.00;;;;;;;10.67;58.61;101004.03;7350574;19;20013;-61
2022/02/27 03:24:43;;;;;;;0.10;0.10;;;;;;;10.67;58.23;100999.66;7354843;19;20022;-61
2022/02/27 03:27:08;;;;;;;0.00;0.00;;;;;;;10.54;58.39;100985.97;7355607;19;20010;-62
2022/02/27 03:29:34;;;;;;;0.00;0.00;;;;;;;10.67;58.51;101001.41;7359269;19;20725;-61
2022/02/27 03:31:59;;;;;;;0.00;0.00;;;;;;;10.67;58.61;100996.19;7355672;19;20007;-62
2022/02/27 03:34:25;;;;;;;0.10;0.10;;;;;;;10.68;58.39;100990.06;7359300;19;20592;-62
2022/02/27 03:36:50;;;;;;;0.00;0.00;;;;;;;10.70;58.62;101006.59;7364631;19;20021;-62
2022/02/27 03:39:16;;;;;;;0.00;0.00;;;;;;;10.70;58.61;100990.91;7359590;19;20749;-62
2022/02/27 03:41:41;;;;;;;0.10;0.10;;;;;;;10.71;58.46;100992.63;7363015;19;20045;-62
2022/02/27 03:44:07;;;;;;;0.00;0.00;;;;;;;10.70;58.72;100970.03;7362363;19;20018;-62
2022/02/27 03:46:34;;;;;;;0.00;0.00;;;;;;;10.70;58.96;100960.44;7355860;19;20042;-62
2022/02/27 03:49:04;;;;;;;0.05;0.05;;;;;;;10.75;58.24;100958.59;7366812;19;20069;-61
2022/02/27 03:51:31;;;;;;;0.00;0.00;;;;;;;10.75;58.74;100957.75;7370371;19;20010;-62
2022/02/27 03:53:56;;;;;;;0.00;0.00;;;;;;;10.74;58.59;100950.78;7375058;19;20027;-62
2022/02/27 03:56:22;;;;;;;0.00;0.00;;;;;;;10.74;58.67;100946.41;7364247;19;20090;-62
2022/02/27 03:58:47;;;;;;;0.00;0.00;;;;;;;10.74;58.38;100935.09;7365290;19;20015;-62
2022/02/27 04:01:13;;;;;;;0.00;0.00;;;;;;;10.72;58.86;100944.72;7336879;19;20025;-61
2022/02/27 04:03:38;;;;;;;0.00;0.00;;;;;;;10.72;58.61;100952.56;7362586;19;20006;-62
2022/02/27 04:06:04;;;;;;;0.00;0.00;;;;;;;10.72;58.58;100968.22;7348907;19;20098;-62
2022/02/27 04:08:29;;;;;;;0.00;0.00;;;;;;;10.70;58.70;100946.53;7355770;19;20014;-61
2022/02/27 04:10:55;;;;;;;0.00;0.00;;;;;;;10.70;58.80;100943.91;7343398;19;20011;-61
2022/02/27 04:13:20;;;;;;;0.00;0.00;;;;;;;10.72;58.51;100955.19;7359741;19;20013;-62
2022/02/27 04:15:46;;;;;;;0.00;0.00;;;;;;;10.69;58.43;100942.16;7366931;19;20014;-62
2022/02/27 04:18:11;;;;;;;0.00;0.00;;;;;;;10.69;58.29;100936.94;7342785;19;20003;-61
2022/02/27 04:20:37;;;;;;;0.00;0.00;;;;;;;10.68;58.78;100933.47;7365884;19;20014;-62
2022/02/27 04:23:03;;;;;;;0.00;0.00;;;;;;;10.68;58.16;100930.00;7359151;19;20010;-61
2022/02/27 04:25:28;;;;;;;0.00;0.00;;;;;;;10.67;58.28;100923.06;7358630;19;20955;-62
2022/02/27 04:27:56;;;;;;;0.08;0.08;;;;;;;10.65;58.12;100926.56;7365625;19;20027;-62
2022/02/27 04:30:22;;;;;;;0.00;0.00;;;;;;;10.65;58.52;100929.19;7361923;19;20514;-62
2022/02/27 04:32:47;;;;;;;0.00;0.00;;;;;;;10.62;58.63;100924.00;7362105;19;20369;-62
2022/02/27 04:35:14;;;;;;;0.00;0.00;;;;;;;10.62;58.98;100944.03;7363344;19;20470;-62
2022/02/27 04:37:40;;;;;;;0.10;0.10;;;;;;;10.58;59.58;100950.19;7361380;19;20006;-61
2022/02/27 04:40:12;;;;;;;0.00;0.00;;;;;;;10.56;59.41;100965.91;1363910;19;10002178;-62
2022/02/27 04:42:38;;;;;;;0.03;0.03;;;;;;;10.51;59.89;100974.72;7365718;19;20083;-62
2022/02/27 04:45:05;;;;;;;0.00;0.00;;;;;;;10.46;60.11;100977.41;7360387;19;20039;-63
2022/02/27 04:47:31;;;;;;;0.00;0.00;;;;;;;10.43;60.20;100987.88;7365846;19;20418;-62
2022/02/27 04:49:56;;;;;;;0.00;0.00;;;;;;;10.39;60.41;100981.00;7357246;19;20082;-60
2022/02/27 04:52:22;;;;;;;0.00;0.00;;;;;;;10.39;60.99;100991.44;7364694;19;20837;-62
2022/02/27 04:54:47;;;;;;;0.00;0.00;;;;;;;10.37;60.66;100993.22;7363202;19;20482;-62
2022/02/27 04:57:13;;;;;;;0.00;0.00;;;;;;;10.35;61.28;100984.56;7360177;19;20018;-62
2022/02/27 04:59:38;;;;;;;0.00;0.00;;;;;;;10.29;61.35;100974.22;7358733;19;20007;-62
2022/02/27 05:02:04;;;;;;;0.00;0.00;;;;;;;10.34;60.92;100982.81;7361485;19;20122;-61
2022/02/27 05:04:30;;;;;;;0.00;0.00;;;;;;;10.26;61.25;100966.44;7361126;19;20013;-61
2022/02/27 05:06:55;;;;;;;0.00;0.00;;;;;;;10.30;61.80;100962.91;7364636;19;20017;-62
2022/02/27 05:09:21;;;;;;;0.00;0.00;;;;;;;10.27;61.40;100970.78;7363210;19;20010;-61
2022/02/27 05:11:48;;;;;;;0.00;0.00;;;;;;;10.24;61.69;100973.44;7365490;19;20014;-62
2022/02/27 05:14:14;;;;;;;0.03;0.03;;;;;;;10.20;62.00;100974.38;7365417;19;20014;-61
2022/02/27 05:16:41;;;;;;;0.00;0.00;;;;;;;10.18;61.88;100965.69;7347373;19;20380;-60
2022/02/27 05:19:07;;;;;;;0.00;0.00;;;;;;;10.13;61.61;100958.78;7372378;19;20039;-62
2022/02/27 05:21:32;;;;;;;0.00;0.00;;;;;;;10.10;61.90;100956.25;7372121;19;20023;-61
2022/02/27 05:23:57;;;;;;;0.00;0.00;;;;;;;10.07;62.02;100971.06;7370679;19;20070;-61
2022/02/27 05:26:23;;;;;;;0.00;0.00;;;;;;;10.00;62.17;100966.84;7362270;19;20028;-62
2022/02/27 05:28:48;;;;;;;0.00;0.00;;;;;;;9.98;62.52;100960.78;7360485;19;20475;-60
2022/02/27 05:31:14;;;;;;;0.00;0.00;;;;;;;9.94;62.00;100964.34;7363136;19;20014;-62
2022/02/27 05:33:40;;;;;;;0.00;0.00;;;;;;;9.89;62.06;100961.81;7362026;19;20006;-62
2022/02/27 05:36:06;;;;;;;0.00;0.00;;;;;;;9.84;62.54;100963.63;7361893;19;20014;-62
2022/02/27 05:38:32;;;;;;;0.00;0.00;;;;;;;9.78;62.70;100961.09;7360207;19;20398;-60
2022/02/27 05:40:57;;;;;;;0.00;0.00;;;;;;;9.74;62.68;100960.31;7364347;19;20011;-61
2022/02/27 05:43:23;;;;;;;0.00;0.00;;;;;;;9.69;63.05;100972.53;7365037;19;20364;-61
2022/02/27 05:45:48;;;;;;;0.00;0.00;;;;;;;9.63;62.66;100962.22;7343644;19;20018;-61
2022/02/27 05:48:13;;;;;;;0.00;0.00;;;;;;;9.62;62.54;100965.69;7362512;19;20035;-62
2022/02/27 05:50:39;;;;;;;0.00;0.00;;;;;;;9.58;62.60;100972.69;7360818;19;20010;-61
2022/02/27 05:53:04;;;;;;;0.00;0.00;;;;;;;9.56;62.83;100976.19;7361331;19;20011;-61
2022/02/27 05:55:30;;;;;;;0.00;0.00;;;;;;;9.52;62.87;100975.38;7363435;19;20014;-61
2022/02/27 05:57:55;;;;;;;0.00;0.00;;;;;;;9.48;63.39;100981.53;7362811;19;20112;-61
2022/02/27 06:00:21;;;;;;;0.00;0.00;;;;;;;9.46;63.20;100969.38;7367970;19;20020;-62
2022/02/27 06:02:46;;;;;;;0.00;0.00;;;;;;;9.43;63.65;100962.50;7368975;19;20018;-62
2022/02/27 06:05:12;;;;;;;0.00;0.00;;;;;;;9.40;62.99;100967.72;7371008;19;20032;-61
2022/02/27 06:07:37;;;;;;;0.00;0.00;;;;;;;9.39;63.46;100994.69;7361609;19;20561;-61
2022/02/27 06:10:04;;;;;;;0.00;0.00;;;;;;;9.36;63.51;100985.16;7364833;19;20019;-61
2022/02/27 06:12:30;;;;;;;0.00;0.00;;;;;;;9.34;63.53;100996.50;7362486;19;20017;-62
2022/02/27 06:14:55;;;;;;;0.00;0.00;;;;;;;9.31;64.37;101001.72;7360633;19;20011;-62
2022/02/27 06:17:20;;;;;;;0.00;0.00;;;;;;;9.29;63.69;101001.75;7360500;19;20017;-62
2022/02/27 06:19:46;;;;;;;0.00;0.00;;;;;;;9.29;63.67;100998.28;7356202;19;19995;-62
2022/02/27 06:22:11;;;;;;;0.00;0.00;;;;;;;9.26;64.30;100996.56;7364816;19;20473;-61
2022/02/27 06:24:37;;;;;;;0.00;0.00;;;;;;;9.25;63.72;100991.38;7353667;19;20021;-61
2022/02/27 06:27:02;;;;;;;0.00;0.00;;;;;;;9.23;64.12;101001.84;7363134;19;20122;-60
2022/02/27 06:29:28;;;;;;;0.00;0.00;;;;;;;9.23;64.06;101019.22;7361219;19;20015;-61
2022/02/27 06:31:53;;;;;;;0.00;0.00;;;;;;;9.22;64.28;100994.03;7363277;19;20025;-60
2022/02/27 06:34:19;;;;;;;0.00;0.00;;;;;;;9.23;64.24;100998.38;7363225;19;20010;-61
2022/02/27 06:36:44;;;;;;;0.00;0.00;;;;;;;9.22;64.69;100987.06;7361046;19;20176;-61
2022/02/27 06:39:10;;;;;;;0.00;0.00;;;;;;;9.25;64.66;100996.59;7322545;19;45409;-59
2022/02/27 06:41:35;;;;;;;0.00;0.00;;;;;;;9.26;64.38;100993.09;1092203;19;10022534;-61
2022/02/27 06:44:01;;;;;;;0.00;0.00;;;;;;;9.26;64.60;100985.28;7357540;19;20461;-61
2022/02/27 06:46:27;;;;;;;0.00;0.00;;;;;;;9.24;64.95;100979.25;7363229;19;20014;-59
2022/02/27 06:48:52;;;;;;;0.10;0.10;;;;;;;9.26;64.67;100977.47;7361163;19;20578;-61
2022/02/27 06:51:18;;;;;;;0.00;0.00;;;;;;;9.25;64.82;100980.97;7356245;19;20010;-61
2022/02/27 06:53:43;;;;;;;0.00;0.00;;;;;;;9.25;64.44;100983.56;7368317;19;20018;-61
2022/02/27 06:56:09;;;;;;;0.00;0.00;;;;;;;9.13;64.24;100955.94;7360361;19;20013;-61
2022/02/27 06:58:34;;;;;;;0.00;0.00;;;;;;;9.24;64.37;100989.66;7373415;19;20011;-62
2022/02/27 07:01:00;;;;;;;0.00;0.00;;;;;;;9.22;64.64;100981.00;7357686;19;21895;-62
2022/02/27 07:03:25;;;;;;;0.00;0.00;;;;;;;9.22;64.53;100986.19;7369850;19;20034;-61
2022/02/27 07:05:51;;;;;;;0.00;0.00;;;;;;;9.19;64.65;100988.88;7364132;19;20003;-62
2022/02/27 07:08:16;;;;;;;0.00;0.00;;;;;;;9.21;64.32;100993.16;7364830;19;20006;-60
2022/02/27 07:10:42;;;;;;;0.00;0.00;;;;;;;9.19;64.75;100986.25;7364695;19;20019;-61
2022/02/27 07:13:07;;;;;;;0.00;0.00;;;;;;;9.19;65.02;100988.88;7366980;19;20022;-61
2022/02/27 07:15:33;;;;;;;0.00;0.00;;;;;;;9.18;64.51;101010.59;7366478;19;20363;-61
2022/02/27 07:18:00;;;;;;;0.00;0.00;;;;;;;9.16;65.24;101007.13;7363768;19;20011;-61
2022/02/27 07:20:26;;;;;;;0.00;0.00;;;;;;;9.15;64.64;101026.25;7367232;19;20025;-62
2022/02/27 07:22:51;;;;;;;0.00;0.00;;;;;;;9.09;64.55;101020.22;7365583;19;20010;-61
2022/02/27 07:25:17;;;;;;;0.00;0.00;;;;;;;9.12;65.41;101026.28;7364522;19;20442;-62
2022/02/27 07:27:42;;;;;;;0.00;0.00;;;;;;;9.09;65.43;101028.06;7364366;19;20007;-61
2022/02/27 07:30:08;;;;;;;0.00;0.00;;;;;;;9.09;65.45;101028.06;7366975;19;20010;-61
2022/02/27 07:32:34;;;;;;;0.00;0.00;;;;;;;9.09;65.81;101028.06;7367626;19;20534;-61
2022/02/27 07:34:59;;;;;;;0.03;0.03;;;;;;;9.12;65.56;101029.75;7363782;19;20094;-61
2022/02/27 07:37:25;;;;;;;0.00;0.00;;;;;;;9.16;65.70;101033.19;7367228;19;20494;-62
2022/02/27 07:39:51;;;;;;;0.00;0.00;;;;;;;9.17;65.78;101024.47;7364258;19;20015;-61
2022/02/27 07:42:17;;;;;;;0.00;0.00;;;;;;;9.20;65.85;101029.66;7366615;19;20011;-62
2022/02/27 07:44:42;;;;;;;0.10;0.10;;;;;;;9.22;65.83;101031.34;7363409;19;20002;-62
2022/02/27 07:47:08;;;;;;;0.00;0.00;;;;;;;9.25;65.61;101033.09;7368824;19;20015;-61
2022/02/27 07:49:33;;;;;;;0.00;0.00;;;;;;;9.27;65.88;101021.75;7363834;19;20036;-60
2022/02/27 07:51:59;;;;;;;0.00;0.00;;;;;;;9.32;65.49;101016.47;7366976;19;20074;-62
2022/02/27 07:54:24;;;;;;;0.00;0.00;;;;;;;8.99;65.92;100948.28;7365171;19;20010;-61
2022/02/27 07:56:50;;;;;;;0.00;0.00;;;;;;;9.38;65.88;101021.63;7363051;19;20006;-61
2022/02/27 07:59:17;;;;;;;0.00;0.00;;;;;;;9.42;65.57;101033.72;7356084;19;20007;-62
2022/02/27 08:01:42;;;;;;;0.00;0.00;;;;;;;9.40;65.53;101013.78;7368194;19;20020;-61
2022/02/27 08:04:08;;;;;;;0.00;0.00;;;;;;;9.47;65.57;101018.88;7362670;19;20006;-61
2022/02/27 08:06:35;;;;;;;0.00;0.00;;;;;;;9.52;65.88;101011.00;7361748;19;20010;-62
2022/02/27 08:09:01;;;;;;;0.00;0.00;;;;;;;9.53;65.84;100997.97;7367926;19;20125;-61
2022/02/27 08:11:28;;;;;;;0.00;0.00;;;;;;;9.58;65.44;101001.38;7358929;19;20023;-61
2022/02/27 08:13:53;;;;;;;0.00;0.00;;;;;;;9.61;65.50;101006.53;7368097;19;20492;-61
2022/02/27 08:16:19;;;;;;;0.00;0.00;;;;;;;9.65;65.48;101007.38;7359824;19;20093;-61
2022/02/27 08:18:44;;;;;;;0.00;0.00;;;;;;;9.67;65.39;101000.38;7354974;19;20745;-62
2022/02/27 08:21:10;;;;;;;0.08;0.08;;;;;;;9.70;64.97;101005.56;7363902;19;20730;-62
2022/02/27 08:23:35;;;;;;;0.00;0.00;;;;;;;9.71;65.06;101006.41;7350886;19;20011;-60
2022/02/27 08:26:01;;;;;;;0.00;0.00;;;;;;;9.75;65.37;101010.72;7361146;19;20038;-61
2022/02/27 08:28:28;;;;;;;0.00;0.00;;;;;;;9.76;65.35;101013.28;7365724;19;20010;-61
2022/02/27 08:30:54;;;;;;;0.00;0.00;;;;;;;9.82;64.82;101020.16;7354556;19;20011;-62
2022/02/27 08:33:19;;;;;;;0.00;0.00;;;;;;;9.84;65.25;101027.09;7369662;19;20038;-61
2022/02/27 08:35:45;;;;;;;0.00;0.00;;;;;;;9.87;64.89;101018.34;7355971;19;20014;-61
2022/02/27 08:38:10;;;;;;;0.00;0.00;;;;;;;9.89;64.88;101016.59;7375448;19;20007;-61
2022/02/27 08:40:36;;;;;;;0.00;0.00;;;;;;;9.84;64.78;100992.31;7372859;19;20021;-61
2022/02/27 08:43:02;;;;;;;0.00;0.00;;;;;;;9.96;64.89;101013.00;7369335;19;20018;-61
2022/02/27 08:45:28;;;;;;;0.00;0.00;;;;;;;9.96;64.58;101002.56;7365225;19;20038;-61
2022/02/27 08:47:55;;;;;;;0.00;0.00;;;;;;;10.02;64.41;101007.69;7365168;19;20003;-61
2022/02/27 08:50:21;;;;;;;0.00;0.00;;;;;;;9.93;64.41;100999.97;7353105;19;20026;-61
2022/02/27 08:52:47;;;;;;;0.00;0.00;;;;;;;10.06;64.62;101017.19;7359678;19;20426;-62
2022/02/27 08:55:26;;;;;;;0.00;0.00;;;;;;;10.03;64.28;101009.38;4984464;19;10021612;-61
2022/02/27 08:57:52;;;;;;;0.00;0.00;;;;;;;10.09;64.26;101038.03;4011474;19;10002183;-61
2022/02/27 09:00:18;;;;;;;0.00;0.00;;;;;;;10.09;64.77;101030.19;7363825;19;20018;-61
2022/02/27 09:02:45;;;;;;;0.00;0.00;;;;;;;10.12;64.66;101045.78;7359733;19;20010;-62
2022/02/27 09:05:11;;;;;;;0.00;0.00;;;;;;;10.14;64.70;101058.84;7360306;19;20013;-62
2022/02/27 09:07:37;;;;;;;0.00;0.00;;;;;;;10.17;64.57;101063.13;7360141;19;20003;-61
2022/02/27 09:10:04;;;;;;;0.00;0.00;;;;;;;10.22;64.67;101069.13;7360444;19;20348;-61
2022/02/27 09:12:30;;;;;;;0.00;0.00;;;;;;;10.23;64.61;101078.69;7365887;19;20014;-59
2022/02/27 09:14:56;;;;;;;0.00;0.00;;;;;;;10.25;64.73;101083.03;7358198;19;20019;-62
2022/02/27 09:17:22;;;;;;;0.05;0.05;;;;;;;10.30;64.27;101080.38;7358314;19;20006;-62
2022/02/27 09:19:49;;;;;;;0.00;0.00;;;;;;;10.33;64.56;101085.53;7361036;19;20017;-62
2022/02/27 09:22:15;;;;;;;0.00;0.00;;;;;;;10.34;64.58;101077.69;7354127;19;20038;-61
2022/02/27 09:24:40;;;;;;;0.10;0.10;;;;;;;10.37;64.44;101076.75;7362783;19;20025;-62
2022/02/27 09:27:06;;;;;;;0.00;0.00;;;;;;;10.26;64.01;101043.00;7369554;19;20002;-62
2022/02/27 09:29:32;;;;;;;0.00;0.00;;;;;;;10.36;63.96;101051.56;7364777;19;20025;-61
2022/02/27 09:31:58;;;;;;;0.00;0.00;;;;;;;10.34;64.28;101035.91;7367049;19;20015;-61
2022/02/27 09:34:24;;;;;;;0.08;0.08;;;;;;;10.37;64.44;101055.88;7361229;19;20093;-59
2022/02/27 09:36:49;;;;;;;0.00;0.00;;;;;;;10.37;64.37;101061.97;7358887;19;20057;-62
2022/02/27 09:39:15;;;;;;;0.10;0.10;;;;;;;10.41;64.89;101049.72;7357722;19;20014;-62
2022/02/27 09:41:41;;;;;;;0.00;0.00;;;;;;;10.40;64.57;101037.56;7360819;19;20014;-61
2022/02/27 09:44:08;;;;;;;0.00;0.00;;;;;;;10.40;64.54;101014.06;7357199;19;20006;-61
2022/02/27 09:46:35;;;;;;;0.00;0.00;;;;;;;10.53;64.52;101036.47;7359944;19;20027;-62
2022/02/27 09:49:00;;;;;;;0.00;0.00;;;;;;;10.57;64.28;101032.91;7358815;19;20006;-61
2022/02/27 09:51:26;;;;;;;0.00;0.00;;;;;;;10.63;64.22;101038.03;7364610;19;20013;-60
2022/02/27 09:53:52;;;;;;;0.00;0.00;;;;;;;10.64;64.37;101049.31;7359568;19;20007;-62
2022/02/27 09:56:19;;;;;;;0.00;0.00;;;;;;;10.69;63.79;101041.41;7360284;19;20010;-61
2022/02/27 09:58:44;;;;;;;0.00;0.00;;;;;;;10.70;64.07;101040.53;7361826;19;20078;-62
2022/02/27 10:01:12;;;;;;;0.00;0.00;;;;;;;10.70;63.63;101038.78;7347697;19;20074;-61
2022/02/27 10:03:38;;;;;;;;;;;;;;;10.77;63.75;101035.16;7354440;19;20002;-62
2022/02/27 10:06:08;;;;;;;0.00;0.00;;;;;;;10.75;63.43;101038.72;7358535;19;19939;-61
2022/02/27 10:08:42;;;;;;;0.00;0.00;;;;;;;10.77;63.56;101040.41;7360378;19;20026;-62
2022/02/27 10:11:13;;;;;;;0.00;0.00;;;;;;;10.75;63.67;101020.44;7350443;19;20003;-61
2022/02/27 10:13:42;;;;;;;0.10;0.10;;;;;;;10.76;63.80;101024.75;7359013;19;20031;-62
2022/02/27 10:16:14;;;;;;;0.10;0.10;;;;;;;10.82;63.74;101011.56;7350388;19;20015;-61
2022/02/27 10:18:45;;;;;;;0.03;0.03;;;;;;;10.81;63.76;101020.31;7361740;19;20097;-61
2022/02/27 10:21:20;;;;;;;0.00;0.00;;;;;;;10.90;63.56;101020.16;7350866;19;20003;-62
2022/02/27 10:23:59;;;;;;;0.00;0.00;;;;;;;10.97;63.21;101011.28;7361456;19;20034;-62
2022/02/27 10:26:25;;;;;;;0.00;0.00;;;;;;;10.98;63.15;101006.91;7356465;19;20010;-61
2022/02/27 10:29:06;;;;;;;0.00;0.00;;;;;;;11.04;63.21;101002.41;7353264;19;20030;-62
2022/02/27 10:31:32;;;;;;;0.00;0.00;;;;;;;11.10;63.34;101006.66;7359762;19;20014;-61
2022/02/27 10:34:10;;;;;;;0.00;0.00;;;;;;;11.27;63.59;101001.13;7355696;19;20010;-61
2022/02/27 10:36:35;;;;;;;0.00;0.00;;;;;;;11.48;63.84;100992.81;7359603;19;20010;-61
2022/02/27 10:39:01;;;;;;;0.05;0.05;;;;;;;11.78;63.21;100995.63;7342898;19;20031;-61
2022/02/27 10:41:36;;;;;;;0.00;0.00;;;;;;;12.10;63.16;100980.06;7358044;19;20007;-60
2022/02/27 10:44:02;;;;;;;0.00;0.00;;;;;;;12.34;62.39;100991.69;7351574;19;20010;-61
2022/02/27 10:46:33;;;;;;;0.00;0.00;;;;;;;12.66;61.71;100982.97;7347141;19;20014;-62
2022/02/27 10:48:59;;;;;;;0.00;0.00;;;;;;;12.96;60.71;100969.94;7359746;19;20018;-62
2022/02/27 10:51:32;;;;;;;0.00;0.00;;;;;;;13.22;60.78;100967.44;7356615;19;20031;-62
2022/02/27 10:53:58;;;;;;;0.00;0.00;;;;;;;13.43;59.47;100960.72;7359576;19;20007;-62
2022/02/27 10:56:31;;;;;;;0.00;0.00;;;;;;;13.64;59.51;100963.59;7359616;19;20017;-62
2022/02/27 10:58:57;;;;;;;0.10;0.10;;;;;;;13.93;58.97;100975.78;7363365;19;20022;-61
2022/02/27 11:01:25;;;;;;;0.00;0.00;;;;;;;14.19;57.39;100962.69;7352849;19;20011;-62
2022/02/27 11:03:55;;;;;;;0.00;0.00;;;;;;;14.43;56.91;100960.97;7362074;19;20010;-62
2022/02/27 11:06:25;;;;;;;0.10;0.10;;;;;;;14.47;55.74;100959.09;6788783;19;10000840;-62
2022/02/27 11:08:51;;;;;;;0.00;0.00;;;;;;;14.45;54.93;100961.78;1721015;19;10001984;-61
2022/02/27 11:11:17;;;;;;;0.03;0.03;;;;;;;14.35;55.48;100959.53;7357972;19;20015;-62
2022/02/27 11:13:44;;;;;;;0.00;0.00;;;;;;;14.25;54.93;100962.47;7356857;19;20021;-62
2022/02/27 11:16:11;;;;;;;;;;;;;;;14.20;55.76;100969.66;7342135;19;20705;-62
2022/02/27 11:18:39;;;;;;;0.00;0.00;;;;;;;13.99;55.10;100959.84;7353598;19;19914;-62
2022/02/27 11:21:04;;;;;;;0.00;0.00;;;;;;;13.81;55.50;100960.44;7348866;19;20558;-62
2022/02/27 11:23:31;;;;;;;0.05;0.05;;;;;;;13.65;55.49;100960.91;7355488;19;20003;-61